首页
METAR-TAF:

METAR-TAF

机场 :

Fort Lauderdale Executive Airport

劳德代尔堡, 佛罗里达州, 美国

纬度: 26-12-00N, 经度: 080-11-00W, 海拔: 4米

当前天气观测

该预报发布于40分钟前的10:53 UTC
风速4节,风向西
温度 27°C
湿度 94%
气压 1014 hPa
能見度: 16.1公里
天空无云

METAR: KFXE 111053Z AUTO 26004KT 10SM CLR 27/26 A2994 RMK AO2 SLP141 T02670256

时间: 07:33 (11:33 UTC)

预报

该预报发布于2小时和34分钟前的08:59 UTC
预报有效从11日的 09点(UTC)到 12日的 06点(UTC)
风速5节,风向西转西南
能見度: 10公里
散云层高于4000英尺
多云层高于14000英尺
从 11日的 1500点(UTC)
风速8节,风向西
能見度: 10公里
散云层高于4000英尺
多云层高于14000英尺
附近有阵雨
从 11日的 1800点(UTC)
风速12节,风向西南
能見度: 10公里
散云层高于2500英尺, 积雨云.
多云层高于5000英尺
附近有雷暴
几率 30%
从 11日的 18点(UTC)到 11日的 24点(UTC)
多云层高于2500英尺, 积雨云.
雷暴, 雨
从 12日的 0200点(UTC)
风速5节,风向西南
能見度: 10公里
少量云层高于5000英尺
散云层高于25000英尺

TAF: KFXE 110859Z 1109/1206 24005KT P6SM SCT040 BKN140 FM111500 26008KT P6SM VCSH SCT040 BKN140 FM111800 22012KT P6SM VCTS SCT025CB BKN050 PROB30 1118/1124 TSRA BKN025CB FM120200 22005KT P6SM FEW050 SCT250

超过4000个机场的气象观测和天气预报(METAR&TAF报告)。

可查询的气象台以黄色和红色小点在地图上表示。

将鼠标移到小点上方,可查看气象台名称。

然后点击查看天气观测和预报。

如需切换地图:点击带黑十字的绿色按钮放大地图;点击带横线的绿色按钮缩小地图;或者点击绿色箭头查看邻近地区的地图。


METAR-TAF: